Time;durP1;ratioP1;P1;durP2;ratioP2;P2;SDS_P1;SDS_P2;PMS_P1;PMS_P2;Temp;Humidity;BMP_temperature;BMP_pressure;BME280_temperature;BME280_humidity;BME280_pressure;Samples;Min_cycle;Max_cycle;Signal;HPM_P1;HPM_P2
2022/11/12 00:01:51;;;;;;;;;;;12.20;55.50;;;;;;5049164;28;20372;-58
2022/11/12 00:04:18;;;;;;;;;;;12.20;55.50;;;;;;5052458;28;19924;-58
2022/11/12 00:06:45;;;;;;;;;;;12.20;55.50;;;;;;5049639;28;19951;-58
2022/11/12 00:09:12;;;;;;;;;;;12.20;55.60;;;;;;5052887;28;20493;-58
2022/11/12 00:11:39;;;;;;;;;;;12.20;55.50;;;;;;5040703;28;19935;-58
2022/11/12 00:14:06;;;;;;;;;;;12.20;55.50;;;;;;5046425;28;19928;-58
2022/11/12 00:16:34;;;;;;;;;;;12.20;55.50;;;;;;5053008;28;19921;-58
2022/11/12 00:19:01;;;;;;;;;;;12.20;55.50;;;;;;5067054;28;19927;-58
2022/11/12 00:21:28;;;;;;;;;;;12.10;55.40;;;;;;5055304;28;19924;-58
2022/11/12 00:23:55;;;;;;;;;;;12.10;55.40;;;;;;5066222;28;19928;-58
2022/11/12 00:26:22;;;;;;;;;;;12.10;55.40;;;;;;5053742;28;20392;-59
2022/11/12 00:28:49;;;;;;;;;;;12.10;55.40;;;;;;5057047;28;19924;-57
2022/11/12 00:31:16;;;;;;;;;;;12.10;55.40;;;;;;5058505;28;19921;-58
2022/11/12 00:33:44;;;;;;;;;;;12.00;55.30;;;;;;5066425;28;19927;-58
2022/11/12 00:36:11;;;;;;;;;;;12.00;55.30;;;;;;5060574;28;19924;-58
2022/11/12 00:38:38;;;;;;;;;;;12.00;55.40;;;;;;5065667;28;19924;-58
2022/11/12 00:41:05;;;;;;;;;;;12.00;55.40;;;;;;5058791;28;19939;-58
2022/11/12 00:43:32;;;;;;;;;;;12.00;55.40;;;;;;5046209;28;20364;-58
2022/11/12 00:45:59;;;;;;;;;;;11.90;55.40;;;;;;5057728;28;19932;-58
2022/11/12 00:48:26;;;;;;;;;;;11.90;55.30;;;;;;5053095;28;19924;-58
2022/11/12 00:51:00;;;;;;;;;;;11.90;55.30;;;;;;5057427;28;19921;-58
2022/11/12 00:53:27;;;;;;;;;;;11.90;55.40;;;;;;5045986;28;19925;-58
2022/11/12 00:55:54;;;;;;;;;;;11.90;55.40;;;;;;5061669;28;19924;-58
2022/11/12 00:58:20;;;;;;;;;;;11.80;55.40;;;;;;5044865;28;19924;-58
2022/11/12 01:00:47;;;;;;;;;;;11.90;55.50;;;;;;5042352;28;20395;-58
2022/11/12 01:03:14;;;;;;;;;;;11.80;55.40;;;;;;5054489;28;19920;-58
2022/11/12 01:05:41;;;;;;;;;;;11.80;55.50;;;;;;5045989;28;19921;-58
2022/11/12 01:08:10;;;;;;;;;;;11.80;55.40;;;;;;5059827;28;20291;-58
2022/11/12 01:10:36;;;;;;;;;;;11.80;55.50;;;;;;5042742;28;19935;-58
2022/11/12 01:13:03;;;;;;;;;;;11.80;55.40;;;;;;5056955;28;20311;-58
2022/11/12 01:15:30;;;;;;;;;;;11.70;55.30;;;;;;5057060;28;19921;-59
2022/11/12 01:17:57;;;;;;;;;;;11.70;55.30;;;;;;5060477;28;19920;-58
2022/11/12 01:20:24;;;;;;;;;;;11.70;55.40;;;;;;5046891;28;19936;-54
2022/11/12 01:22:51;;;;;;;;;;;11.70;55.40;;;;;;5060914;28;19920;-58
2022/11/12 01:25:19;;;;;;;;;;;11.60;55.40;;;;;;5056190;28;19925;-56
2022/11/12 01:27:46;;;;;;;;;;;11.60;55.40;;;;;;5045464;28;19943;-54
2022/11/12 01:30:13;;;;;;;;;;;11.60;55.40;;;;;;5041875;28;20451;-58
2022/11/12 01:32:40;;;;;;;;;;;11.60;55.40;;;;;;5055092;28;19927;-58
2022/11/12 01:35:07;;;;;;;;;;;11.50;55.30;;;;;;5058171;28;19924;-58
2022/11/12 01:37:34;;;;;;;;;;;11.50;55.30;;;;;;5064987;28;19920;-58
2022/11/12 01:40:01;;;;;;;;;;;11.50;55.40;;;;;;5052340;28;19921;-53
2022/11/12 01:42:31;;;;;;;;;;;11.50;55.40;;;;;;5047037;28;19927;-58
2022/11/12 01:44:58;;;;;;;;;;;11.50;55.40;;;;;;5060436;28;19967;-57
2022/11/12 01:47:27;;;;;;;;;;;11.50;55.50;;;;;;5047857;28;19925;-57
2022/11/12 01:49:56;;;;;;;;;;;11.40;55.50;;;;;;5056028;28;20411;-58
2022/11/12 01:52:25;;;;;;;;;;;11.40;55.50;;;;;;5060318;28;19920;-58
2022/11/12 01:54:54;;;;;;;;;;;11.40;55.50;;;;;;5061449;28;19920;-53
2022/11/12 01:57:24;;;;;;;;;;;11.40;55.60;;;;;;5056786;28;19935;-58
2022/11/12 01:59:55;;;;;;;;;;;11.40;55.60;;;;;;5053524;28;19924;-58
2022/11/12 02:02:22;;;;;;;;;;;11.40;55.60;;;;;;5049695;28;19975;-46
2022/11/12 02:04:50;;;;;;;;;;;11.30;55.60;;;;;;5061594;28;19924;-47
2022/11/12 02:07:17;;;;;;;;;;;11.40;55.60;;;;;;5047760;28;19935;-54
2022/11/12 02:09:44;;;;;;;;;;;11.30;55.60;;;;;;5044629;28;19927;-51
2022/11/12 02:13:56;;;;;;;;;;;11.30;56.10;;;;;;5051240;28;19924;-48
2022/11/12 02:14:59;;;;;;;;;;;11.30;55.60;;;;;;5059985;28;19939;-49
2022/11/12 02:17:26;;;;;;;;;;;11.30;56.10;;;;;;5054399;28;19935;-44
2022/11/12 02:19:53;;;;;;;;;;;11.30;55.60;;;;;;5044340;28;19925;-51
2022/11/12 02:22:21;;;;;;;;;;;11.30;55.70;;;;;;5056470;28;20277;-46
2022/11/12 02:24:48;;;;;;;;;;;11.30;55.70;;;;;;5050090;28;19946;-44
2022/11/12 02:27:15;;;;;;;;;;;11.30;55.70;;;;;;5061765;28;19936;-45
2022/11/12 02:32:45;;;;;;;;;;;11.20;55.70;;;;;;5050841;28;19927;-47
2022/11/12 02:35:12;;;;;;;;;;;11.20;55.70;;;;;;5056602;28;19939;-48
2022/11/12 02:37:40;;;;;;;;;;;11.20;55.70;;;;;;5044647;28;19932;-46
2022/11/12 02:40:08;;;;;;;;;;;11.20;55.70;;;;;;5040646;28;19943;-48
2022/11/12 02:42:35;;;;;;;;;;;11.20;55.70;;;;;;5051184;28;19955;-47
2022/11/12 02:45:02;;;;;;;;;;;11.20;55.70;;;;;;5054709;28;19920;-47
2022/11/12 02:47:29;;;;;;;;;;;11.20;55.70;;;;;;5049306;28;19927;-48
2022/11/12 02:49:55;;;;;;;;;;;11.20;55.70;;;;;;5057882;28;19930;-49
2022/11/12 02:52:22;;;;;;;;;;;11.20;55.70;;;;;;5045706;28;19939;-50
2022/11/12 02:54:51;;;;;;;;;;;11.10;55.70;;;;;;5053253;28;19920;-45
2022/11/12 02:57:18;;;;;;;;;;;11.10;55.70;;;;;;5044800;28;19921;-49
2022/11/12 02:59:45;;;;;;;;;;;11.10;55.70;;;;;;5054998;28;19928;-49
2022/11/12 03:02:11;;;;;;;;;;;11.10;55.70;;;;;;5056427;28;19927;-51
2022/11/12 03:04:38;;;;;;;;;;;11.10;55.80;;;;;;5055695;28;19920;-46
2022/11/12 03:07:06;;;;;;;;;;;11.10;55.80;;;;;;5046698;28;20393;-43
2022/11/12 03:09:33;;;;;;;;;;;11.10;55.80;;;;;;5056626;28;19974;-47
2022/11/12 03:12:02;;;;;;;;;;;11.10;55.80;;;;;;5050537;28;20291;-48
2022/11/12 03:14:29;;;;;;;;;;;11.10;55.80;;;;;;5045324;28;19943;-47
2022/11/12 03:16:56;;;;;;;;;;;11.10;55.80;;;;;;5042492;28;19929;-46
2022/11/12 03:19:22;;;;;;;;;;;11.10;55.80;;;;;;5048357;28;19928;-48
2022/11/12 03:21:49;;;;;;;;;;;11.00;55.70;;;;;;5050790;28;19928;-47
2022/11/12 03:24:16;;;;;;;;;;;11.00;55.80;;;;;;5059425;28;20402;-49
2022/11/12 03:26:43;;;;;;;;;;;11.00;55.80;;;;;;5047696;28;19928;-46
2022/11/12 03:29:12;;;;;;;;;;;11.00;55.80;;;;;;5056310;28;19921;-49
2022/11/12 03:31:38;;;;;;;;;;;11.00;55.80;;;;;;5049185;28;20595;-47
2022/11/12 03:34:05;;;;;;;;;;;11.00;55.80;;;;;;5047654;28;20400;-44
2022/11/12 03:36:32;;;;;;;;;;;11.00;55.80;;;;;;5042114;28;19920;-49
2022/11/12 03:38:59;;;;;;;;;;;11.00;55.80;;;;;;5062353;28;19920;-46
2022/11/12 03:41:26;;;;;;;;;;;10.90;55.80;;;;;;5057727;28;19983;-46
2022/11/12 03:43:53;;;;;;;;;;;11.00;55.80;;;;;;5046631;28;19921;-45
2022/11/12 03:46:22;;;;;;;;;;;10.90;55.70;;;;;;5048143;28;19928;-47
2022/11/12 03:48:48;;;;;;;;;;;10.90;55.70;;;;;;5048090;28;19934;-47
2022/11/12 03:51:17;;;;;;;;;;;10.90;55.70;;;;;;5048644;28;20270;-44
2022/11/12 03:53:44;;;;;;;;;;;10.90;55.70;;;;;;5055797;28;19943;-48
2022/11/12 03:56:11;;;;;;;;;;;10.90;55.70;;;;;;5052793;28;19940;-46
2022/11/12 03:58:38;;;;;;;;;;;10.90;55.70;;;;;;5054280;28;19931;-58
2022/11/12 04:01:05;;;;;;;;;;;10.90;55.70;;;;;;5056465;28;19928;-58
2022/11/12 04:03:33;;;;;;;;;;;10.80;55.70;;;;;;5063526;28;19927;-58
2022/11/12 04:08:44;;;;;;;;;;;10.80;55.70;;;;;;5067132;28;19927;-58
2022/11/12 04:11:12;;;;;;;;;;;10.80;55.70;;;;;;5048129;28;19920;-58
2022/11/12 04:13:38;;;;;;;;;;;10.80;55.70;;;;;;5067448;28;20405;-58
2022/11/12 04:21:53;;;;;;;;;;;10.70;55.70;;;;;;5053596;28;19928;-57
2022/11/12 04:27:06;;;;;;;;;;;10.70;55.70;;;;;;5065617;28;19954;-57
2022/11/12 04:32:18;;;;;;;;;;;10.60;55.70;;;;;;5065314;28;19916;-58
2022/11/12 04:34:46;;;;;;;;;;;10.60;55.70;;;;;;5051702;28;19924;-57
2022/11/12 04:37:13;;;;;;;;;;;10.60;55.70;;;;;;5058286;28;19924;-58
2022/11/12 04:39:40;;;;;;;;;;;10.60;55.70;;;;;;5055401;28;19925;-58
2022/11/12 04:47:28;;;;;;;;;;;10.60;55.60;;;;;;5009225;28;19936;-57
2022/11/12 04:54:19;;;;;;;7.97;5.47;;;10.40;55.80;;;;;;5018880;28;20114;-56
2022/11/12 04:56:46;;;;;;;9.02;5.15;;;10.30;56.00;;;;;;5010096;28;20050;-50
2022/11/12 04:59:13;;;;;;;7.75;5.80;;;10.20;56.10;;;;;;5007496;28;20053;-56
2022/11/12 05:01:40;;;;;;;9.77;6.78;;;10.10;56.20;;;;;;5000920;28;20054;-56
2022/11/12 05:04:07;;;;;;;7.20;5.40;;;10.10;56.30;;;;;;5006099;28;20509;-56
2022/11/12 05:06:51;;;;;;;11.15;6.32;;;10.00;56.30;;;;;;4992964;28;20054;-56
2022/11/12 05:09:19;;;;;;;8.43;5.33;;;10.00;56.40;;;;;;4988540;28;20058;-57
2022/11/12 05:11:46;;;;;;;8.27;5.05;;;10.00;56.30;;;;;;4985028;28;20502;-50
2022/11/12 05:14:14;;;;;;;9.27;5.35;;;9.90;56.30;;;;;;4985741;28;20579;-54
2022/11/12 05:16:41;;;;;;;9.07;5.05;;;9.90;56.40;;;;;;4985488;28;20077;-55
2022/11/12 05:19:08;;;;;;;7.65;5.20;;;9.80;56.40;;;;;;5008901;28;20057;-56
2022/11/12 05:24:22;;;;;;;6.90;5.05;;;9.80;56.50;;;;;;5015790;28;20058;-57
2022/11/12 05:26:49;;;;;;;8.60;5.47;;;9.80;56.40;;;;;;5001563;28;20061;-57
2022/11/12 05:29:16;;;;;;;8.48;5.13;;;9.70;56.40;;;;;;5007257;28;20713;-58
2022/11/12 05:31:44;;;;;;;7.18;5.15;;;9.70;56.90;;;;;;5000593;28;20532;-57
2022/11/12 05:34:11;;;;;;;17.55;9.57;;;9.70;56.50;;;;;;4986958;28;20058;-57
2022/11/12 05:36:40;;;;;;;81.40;31.35;;;9.70;56.50;;;;;;4999222;28;20054;-57
2022/11/12 05:39:07;;;;;;;16.92;9.82;;;9.60;56.50;;;;;;5003531;28;20496;-57
2022/11/12 05:41:34;;;;;;;11.25;6.85;;;9.70;56.50;;;;;;4997215;28;20042;-53
2022/11/12 05:44:02;;;;;;;9.88;6.13;;;9.60;57.00;;;;;;4999370;28;20489;-57
2022/11/12 05:46:29;;;;;;;8.27;5.28;;;9.60;56.50;;;;;;5001106;28;20061;-57
2022/11/12 05:48:56;;;;;;;9.27;5.57;;;9.60;56.50;;;;;;4996803;28;20402;-57
2022/11/12 05:51:23;;;;;;;7.57;5.25;;;9.50;56.50;;;;;;4996009;28;20073;-57
2022/11/12 05:53:52;;;;;;;6.75;4.82;;;9.50;56.40;;;;;;4989542;28;20054;-55
2022/11/12 05:56:19;;;;;;;6.97;4.75;;;9.50;56.50;;;;;;4997723;28;20396;-52
2022/11/12 05:58:47;;;;;;;23.08;12.07;;;9.40;56.40;;;;;;5006965;28;20383;-49
2022/11/12 06:01:14;;;;;;;39.83;18.73;;;9.50;56.50;;;;;;4996372;28;20049;-58
2022/11/12 06:03:41;;;;;;;12.70;7.40;;;9.40;56.50;;;;;;4990306;28;20066;-57
2022/11/12 06:06:20;;;;;;;8.18;4.38;;;9.40;56.60;;;;;;4992121;28;20076;-56
2022/11/12 06:08:47;;;;;;;5.35;3.97;;;9.40;56.70;;;;;;4980952;28;20411;-57
2022/11/12 06:11:16;;;;;;;5.85;3.90;;;9.30;56.60;;;;;;4989060;28;20409;-57
2022/11/12 06:13:43;;;;;;;6.15;4.15;;;9.30;56.70;;;;;;4990816;28;20255;-57
2022/11/12 06:16:10;;;;;;;7.20;4.03;;;9.30;56.70;;;;;;4983158;28;20065;-57
2022/11/12 06:18:38;;;;;;;5.43;3.85;;;9.30;56.70;;;;;;5002116;28;20054;-53
2022/11/12 06:21:20;;;;;;;6.65;4.85;;;9.30;56.70;;;;;;4973484;28;20065;-51
2022/11/12 06:23:49;;;;;;;6.35;4.25;;;9.20;56.70;;;;;;4992422;28;20057;-57
2022/11/12 06:26:19;;;;;;;6.47;4.93;;;9.20;57.10;;;;;;4984842;28;20061;-57
2022/11/12 06:28:47;;;;;;;8.70;4.30;;;9.20;56.80;;;;;;4988104;28;20122;-57
2022/11/12 06:31:15;;;;;;;9.27;5.20;;;9.10;56.80;;;;;;4993411;28;20057;-57
2022/11/12 06:33:42;;;;;;;7.88;4.88;;;9.20;56.80;;;;;;5004947;28;20395;-58
2022/11/12 06:36:11;;;;;;;11.90;5.03;;;9.10;56.80;;;;;;4998677;28;20516;-57
2022/11/12 06:38:40;;;;;;;8.40;5.50;;;9.10;56.90;;;;;;5001403;28;20422;-57
2022/11/12 06:41:09;;;;;;;10.35;5.30;;;9.10;56.90;;;;;;4994573;28;20121;-56
2022/11/12 06:43:38;;;;;;;7.53;5.13;;;9.10;56.90;;;;;;5005066;28;20049;-57
2022/11/12 06:46:08;;;;;;;12.85;6.07;;;9.10;57.00;;;;;;4986709;28;20486;-57
2022/11/12 06:48:35;;;;;;;8.50;5.30;;;9.00;56.90;;;;;;4990993;28;20050;-57
2022/11/12 06:51:07;;;;;;;8.23;5.53;;;9.00;56.90;;;;;;4987887;28;20406;-57
2022/11/12 06:53:34;;;;;;;8.20;5.53;;;9.00;57.20;;;;;;4992267;28;20050;-55
2022/11/12 06:56:02;;;;;;;8.73;5.40;;;9.00;57.00;;;;;;5004091;28;20057;-57
2022/11/12 06:58:30;;;;;;;8.48;5.60;;;8.90;57.00;;;;;;4987054;28;20414;-57
2022/11/12 07:01:04;;;;;;;8.82;5.70;;;9.00;57.00;;;;;;4977153;28;20150;-56
2022/11/12 07:03:31;;;;;;;9.57;6.20;;;8.90;57.00;;;;;;4982472;28;20506;-54
2022/11/12 07:06:03;;;;;;;7.25;5.00;;;8.90;57.00;;;;;;4993163;28;20528;-56
2022/11/12 07:08:30;;;;;;;10.07;5.30;;;8.90;57.10;;;;;;4975962;28;20057;-53
2022/11/12 07:10:57;;;;;;;8.55;4.45;;;8.90;57.10;;;;;;4982502;28;20516;-54
2022/11/12 07:13:25;;;;;;;8.63;5.13;;;8.90;57.00;;;;;;4989138;28;20069;-56
2022/11/12 07:15:52;;;;;;;9.85;5.75;;;8.90;57.10;;;;;;4982744;28;20077;-55
2022/11/12 07:18:21;;;;;;;8.88;5.28;;;8.90;57.10;;;;;;4985351;28;20058;-55
2022/11/12 07:20:48;;;;;;;9.02;5.93;;;8.90;57.10;;;;;;4985732;28;20050;-55
2022/11/12 07:23:15;;;;;;;8.68;5.55;;;8.80;57.10;;;;;;4978875;28;20050;-56
2022/11/12 07:25:42;;;;;;;8.30;5.53;;;8.80;57.10;;;;;;4977474;28;20061;-56
2022/11/12 07:28:09;;;;;;;7.82;5.30;;;8.80;57.10;;;;;;4980064;28;20062;-56
2022/11/12 07:30:36;;;;;;;6.70;4.82;;;8.80;57.10;;;;;;4974474;28;20054;-56
2022/11/12 07:33:04;;;;;;;7.50;5.22;;;8.80;57.20;;;;;;4969820;28;20532;-47
2022/11/12 07:35:32;;;;;;;8.85;5.65;;;8.80;57.20;;;;;;4971674;28;20054;-49
2022/11/12 07:37:59;;;;;;;29.67;13.57;;;8.80;57.20;;;;;;4984344;28;20061;-52
2022/11/12 07:40:27;;;;;;;12.93;7.75;;;8.80;57.30;;;;;;4989283;28;20066;-56
2022/11/12 07:42:54;;;;;;;9.88;6.03;;;8.80;57.20;;;;;;4999809;28;20054;-56
2022/11/12 07:45:21;;;;;;;8.05;5.55;;;8.80;57.20;;;;;;4985702;28;20054;-56
2022/11/12 07:47:48;;;;;;;8.30;5.80;;;8.80;57.30;;;;;;4980206;28;20058;-51
2022/11/12 07:50:15;;;;;;;10.70;5.75;;;8.90;57.30;;;;;;4987753;28;20058;-52
2022/11/12 07:52:44;;;;;;;8.27;5.68;;;8.90;57.40;;;;;;4981932;28;20422;-55
2022/11/12 07:55:11;;;;;;;8.18;4.72;;;8.90;57.50;;;;;;4982931;28;20054;-54
2022/11/12 07:57:39;;;;;;;8.23;5.45;;;8.90;57.50;;;;;;4979913;28;20061;-52
2022/11/12 08:00:09;;;;;;;8.70;5.60;;;8.90;57.50;;;;;;4981559;28;20422;-56
2022/11/12 08:02:39;;;;;;;10.20;5.20;;;8.90;57.70;;;;;;4975658;28;20047;-56
2022/11/12 08:05:07;;;;;;;10.73;5.85;;;8.90;57.70;;;;;;4981554;28;20054;-51
2022/11/12 08:07:34;;;;;;;8.48;5.10;;;8.90;57.90;;;;;;4979720;28;20054;-56
2022/11/12 08:10:03;;;;;;;6.78;5.10;;;8.90;58.00;;;;;;4989463;28;20054;-55
2022/11/12 08:12:30;;;;;;;8.68;5.60;;;8.90;58.10;;;;;;4978266;28;20058;-54
2022/11/12 08:14:57;;;;;;;10.82;5.70;;;9.00;58.30;;;;;;4980150;28;20050;-54
2022/11/12 08:17:24;;;;;;;10.63;5.55;;;9.00;58.40;;;;;;4975959;28;20383;-55
2022/11/12 08:19:54;;;;;;;10.00;5.10;;;9.00;58.40;;;;;;5000308;28;20430;-49
2022/11/12 08:22:21;;;;;;;9.10;5.15;;;9.00;58.40;;;;;;4981226;28;20058;-49
2022/11/12 08:24:48;;;;;;;7.65;4.80;;;9.00;58.40;;;;;;4999136;28;20057;-55
2022/11/12 08:27:16;;;;;;;8.88;4.97;;;9.10;58.50;;;;;;4989011;28;20054;-54
2022/11/12 08:29:44;;;;;;;7.38;5.05;;;9.10;58.60;;;;;;5002136;28;20054;-56
2022/11/12 08:32:11;;;;;;;8.80;5.63;;;9.20;58.70;;;;;;4997288;28;20057;-56
2022/11/12 08:34:40;;;;;;;8.65;5.28;;;9.20;58.70;;;;;;4988234;28;20057;-55
2022/11/12 08:37:07;;;;;;;9.05;4.93;;;9.20;58.80;;;;;;4999644;28;20049;-56
2022/11/12 08:39:34;;;;;;;8.00;5.22;;;9.30;58.80;;;;;;4990536;28;20085;-57
2022/11/12 08:42:01;;;;;;;10.27;6.03;;;9.30;58.80;;;;;;4981178;28;20054;-55
2022/11/12 08:44:30;;;;;;;41.65;20.50;;;9.30;59.00;;;;;;4989650;28;20061;-53
2022/11/12 08:46:58;;;;;;;14.90;7.65;;;9.30;59.10;;;;;;4985426;28;20054;-54
2022/11/12 08:49:25;;;;;;;8.27;5.22;;;9.40;59.10;;;;;;5001278;28;20065;-55
2022/11/12 08:51:52;;;;;;;10.50;5.70;;;9.40;59.10;;;;;;4994791;28;20057;-55
2022/11/12 08:54:19;;;;;;;7.60;4.93;;;9.40;59.10;;;;;;4997317;28;20058;-55
2022/11/12 08:56:47;;;;;;;10.65;5.72;;;9.40;59.50;;;;;;4993039;28;20058;-54
2022/11/12 08:59:15;;;;;;;10.73;5.40;;;9.50;59.20;;;;;;4989582;28;20061;-53
2022/11/12 09:01:43;;;;;;;9.32;5.70;;;9.50;59.30;;;;;;4986971;28;20074;-55
2022/11/12 09:04:10;;;;;;;7.70;5.22;;;9.50;59.40;;;;;;5000286;28;20486;-54
2022/11/12 09:06:37;;;;;;;8.20;5.38;;;9.50;59.50;;;;;;4982577;28;20081;-56
2022/11/12 09:09:05;;;;;;;8.63;6.00;;;9.60;59.60;;;;;;4980032;28;20054;-54
2022/11/12 09:11:32;;;;;;;8.25;5.63;;;9.60;59.60;;;;;;4980457;28;20478;-47
2022/11/12 09:13:59;;;;;;;8.77;5.93;;;9.70;59.60;;;;;;4985987;28;20387;-56
2022/11/12 09:16:26;;;;;;;9.13;5.93;;;9.70;59.80;;;;;;4993417;28;20417;-54
2022/11/12 09:18:55;;;;;;;9.05;5.72;;;9.80;59.90;;;;;;4981826;28;20454;-55
2022/11/12 09:21:23;;;;;;;36.45;16.77;;;9.80;60.10;;;;;;4982048;28;20058;-56
2022/11/12 09:23:50;;;;;;;17.67;10.13;;;9.90;60.40;;;;;;4979974;28;20050;-53
2022/11/12 09:26:18;;;;;;;13.10;7.75;;;9.90;60.70;;;;;;4983907;28;20422;-55
2022/11/12 09:28:45;;;;;;;12.65;9.32;;;10.00;60.70;;;;;;4996439;28;20050;-55
2022/11/12 09:31:12;;;;;;;10.85;7.72;;;10.00;60.70;;;;;;4990645;28;20073;-50
2022/11/12 09:33:39;;;;;;;11.18;6.80;;;10.10;60.90;;;;;;5003253;28;20058;-56
2022/11/12 09:36:08;;;;;;;9.65;6.55;;;10.20;61.10;;;;;;4988559;28;20058;-56
2022/11/12 09:38:35;;;;;;;8.35;6.13;;;10.20;61.00;;;;;;5006023;28;20066;-53
2022/11/12 09:41:16;;;;;;;9.70;6.55;;;10.30;61.00;;;;;;4986739;28;20057;-48
2022/11/12 09:43:48;;;;;;;8.43;6.10;;;10.40;61.10;;;;;;5002524;28;20058;-56
2022/11/12 09:46:31;;;;;;;11.18;7.40;;;10.50;61.10;;;;;;4991357;28;20050;-49
2022/11/12 09:49:06;;;;;;;9.68;6.85;;;10.50;61.10;;;;;;5001318;28;20049;-56
2022/11/12 09:51:39;;;;;;;12.02;7.78;;;10.60;61.10;;;;;;4998349;28;20046;-53
2022/11/12 09:54:17;;;;;;;12.63;7.68;;;10.60;61.20;;;;;;5000689;28;20425;-55
2022/11/12 09:56:44;;;;;;;11.60;8.32;;;10.70;61.40;;;;;;5006153;28;20065;-55
2022/11/12 09:59:13;;;;;;;11.85;7.88;;;10.80;61.50;;;;;;4992652;28;20058;-56
2022/11/12 10:01:49;;;;;;;14.13;8.93;;;10.80;61.40;;;;;;5004757;28;20061;-50
2022/11/12 10:04:45;;;;;;;12.85;8.65;;;10.90;61.60;;;;;;4987946;28;20050;-57
2022/11/12 10:07:25;;;;;;;16.15;10.02;;;10.90;61.60;;;;;;4984616;28;20054;-56
2022/11/12 10:10:01;;;;;;;16.13;8.75;;;11.00;61.70;;;;;;4998902;28;20533;-49
2022/11/12 10:12:40;;;;;;;13.35;9.23;;;11.10;61.70;;;;;;4984604;28;20058;-56
2022/11/12 10:18:33;;;;;;;13.55;9.55;;;11.20;61.90;;;;;;5011927;28;20513;-56
2022/11/12 10:21:08;;;;;;;12.18;8.38;;;11.30;61.90;;;;;;4994393;28;20046;-55
2022/11/12 10:23:42;;;;;;;13.80;9.25;;;11.30;61.70;;;;;;4989033;28;20061;-56
2022/11/12 10:26:13;;;;;;;13.55;9.02;;;11.40;61.90;;;;;;4999398;28;20058;-54
2022/11/12 10:28:45;;;;;;;15.85;9.13;;;11.40;61.70;;;;;;5007130;28;20417;-53
2022/11/12 10:31:14;;;;;;;11.35;8.23;;;11.50;61.60;;;;;;4998007;28;20061;-54
2022/11/12 10:33:42;;;;;;;12.27;8.38;;;11.50;61.50;;;;;;4993932;28;20054;-53
2022/11/12 10:36:21;;;;;;;12.55;9.00;;;11.60;62.10;;;;;;4988205;28;20517;-54
2022/11/12 10:38:52;;;;;;;13.15;8.93;;;11.70;61.50;;;;;;5000572;28;20061;-49
2022/11/12 10:41:23;;;;;;;13.27;8.75;;;11.70;61.40;;;;;;5005587;28;20061;-51
2022/11/12 10:43:55;;;;;;;12.40;8.63;;;11.70;61.40;;;;;;5004940;28;20060;-55
2022/11/12 10:46:24;;;;;;;12.80;8.77;;;11.80;61.50;;;;;;4996860;28;20054;-56
2022/11/12 10:48:57;;;;;;;13.60;9.73;;;11.90;61.50;;;;;;5004188;28;20061;-51
2022/11/12 10:51:28;;;;;;;14.88;9.02;;;11.90;61.50;;;;;;4990823;28;20506;-52
2022/11/12 10:53:56;;;;;;;14.35;9.40;;;11.90;61.50;;;;;;4995812;28;20061;-50
2022/11/12 10:56:30;;;;;;;14.68;9.05;;;12.00;61.40;;;;;;5005184;28;20061;-55
2022/11/12 10:59:18;;;;;;;15.63;9.80;;;12.00;61.40;;;;;;4993453;28;20062;-54
2022/11/12 11:01:53;;;;;;;12.68;8.90;;;12.10;61.50;;;;;;4988979;28;20085;-55
2022/11/12 11:04:29;;;;;;;12.48;8.77;;;12.10;61.30;;;;;;4994422;28;20491;-53
2022/11/12 11:07:02;;;;;;;16.25;10.35;;;12.20;61.30;;;;;;4993142;28;20050;-56
2022/11/12 11:09:31;;;;;;;14.07;9.40;;;12.20;61.20;;;;;;4983230;28;20054;-55
2022/11/12 11:11:59;;;;;;;15.02;10.45;;;12.30;61.30;;;;;;4993332;28;20049;-48
2022/11/12 11:14:32;;;;;;;11.50;8.73;;;12.30;61.20;;;;;;4984516;28;20057;-52
2022/11/12 11:17:03;;;;;;;13.50;8.88;;;12.40;61.10;;;;;;4985231;28;20053;-52
2022/11/12 11:19:37;;;;;;;11.02;7.63;;;12.40;61.20;;;;;;4987984;28;20061;-52
2022/11/12 11:22:25;;;;;;;17.05;8.68;;;12.40;61.10;;;;;;4995574;28;20057;-55
2022/11/12 11:25:26;;;;;;;12.63;8.75;;;12.50;61.10;;;;;;4995578;28;20058;-55
2022/11/12 11:28:06;;;;;;;15.38;8.70;;;12.50;61.70;;;;;;4981726;28;20054;-55
2022/11/12 11:30:34;;;;;;;17.52;8.55;;;12.60;61.00;;;;;;4998361;28;20057;-55
2022/11/12 11:33:26;;;;;;;12.80;8.32;;;12.60;61.00;;;;;;4998330;28;20482;-53
2022/11/12 11:36:01;;;;;;;12.90;8.95;;;12.70;61.10;;;;;;4992390;28;20498;-56
2022/11/12 11:38:39;;;;;;;12.32;8.15;;;12.70;60.90;;;;;;5003089;28;20414;-54
2022/11/12 11:41:29;;;;;;;12.30;8.20;;;12.80;61.00;;;;;;4987373;28;20054;-52
2022/11/12 11:44:06;;;;;;;14.05;8.25;;;12.80;61.00;;;;;;4959902;28;20507;-55
2022/11/12 11:46:58;;;;;;;12.45;8.00;;;12.80;60.90;;;;;;4961238;28;20062;-50
2022/11/12 11:49:54;;;;;;;14.65;8.93;;;12.90;60.90;;;;;;4956315;28;20699;-47
2022/11/12 11:52:41;;;;;;;12.93;8.55;;;13.00;60.90;;;;;;4957703;28;20448;-41
2022/11/12 11:55:32;;;;;;;13.02;8.43;;;13.00;60.90;;;;;;4959221;28;20053;-41
2022/11/12 11:58:13;;;;;;;14.38;8.82;;;13.10;60.80;;;;;;4963706;28;20418;-44
2022/11/12 12:00:47;;;;;;;13.77;8.85;;;13.10;60.60;;;;;;4957237;28;20054;-43
2022/11/12 12:03:25;;;;;;;12.20;8.48;;;13.20;60.70;;;;;;4959289;28;20055;-46
2022/11/12 12:06:15;;;;;;;11.88;7.50;;;13.20;61.30;;;;;;4961519;28;20050;-41
2022/11/12 12:09:03;;;;;;;11.93;8.38;;;13.30;60.70;;;;;;4960373;28;20054;-43
2022/11/12 12:11:37;;;;;;;11.48;7.65;;;13.30;60.60;;;;;;4958838;28;20053;-44
2022/11/12 12:14:18;;;;;;;10.05;7.43;;;13.40;60.50;;;;;;4964436;28;20054;-43
2022/11/12 12:16:53;;;;;;;13.32;7.72;;;13.40;60.30;;;;;;4975632;28;20524;-44
2022/11/12 12:19:45;;;;;;;11.43;7.28;;;13.50;60.40;;;;;;4990981;28;20058;-42
2022/11/12 12:22:16;;;;;;;12.27;7.72;;;13.50;60.40;;;;;;4986953;28;20440;-41
2022/11/12 12:24:49;;;;;;;11.15;7.93;;;13.60;60.40;;;;;;4994053;28;20046;-43
2022/11/12 12:27:21;;;;;;;14.38;7.45;;;13.60;60.20;;;;;;4991313;28;20524;-46
2022/11/12 12:29:53;;;;;;;11.30;7.80;;;13.60;60.00;;;;;;5003704;28;20587;-41
2022/11/12 12:32:25;;;;;;;12.15;7.38;;;13.70;60.00;;;;;;4992284;28;20058;-43
2022/11/12 12:34:59;;;;;;;10.98;7.50;;;13.70;60.00;;;;;;4999124;28;20054;-43
2022/11/12 12:37:33;;;;;;;13.32;8.43;;;13.70;59.90;;;;;;4991516;28;20057;-41
2022/11/12 12:40:03;;;;;;;;;;;13.70;59.70;;;;;;4994948;28;20062;-44
2022/11/12 12:42:34;;;;;;;11.18;7.25;;;13.80;59.70;;;;;;4995508;28;19921;-41
2022/11/12 12:45:23;;;;;;;8.38;6.28;;;13.80;59.50;;;;;;4995984;28;20494;-43
2022/11/12 12:47:52;;;;;;;9.85;6.30;;;13.90;59.50;;;;;;4994333;28;20057;-47
2022/11/12 12:50:21;;;;;;;9.55;6.05;;;13.90;59.60;;;;;;4996609;28;20061;-40
2022/11/12 12:53:02;;;;;;;10.07;6.65;;;13.90;60.10;;;;;;4993114;28;20054;-41
2022/11/12 12:55:39;;;;;;;7.85;5.65;;;14.00;59.60;;;;;;5002941;28;20054;-43
2022/11/12 12:58:17;;;;;;;8.07;5.63;;;14.00;59.50;;;;;;4991072;28;20419;-41
2022/11/12 13:00:50;;;;;;;7.55;5.53;;;14.00;59.40;;;;;;4985418;28;20054;-40
2022/11/12 13:03:53;;;;;;;6.32;4.90;;;14.10;59.50;;;;;;5001460;28;20057;-41
2022/11/12 13:06:27;;;;;;;10.13;6.00;;;14.20;59.50;;;;;;4987478;28;20390;-42
2022/11/12 13:08:59;;;;;;;7.32;5.65;;;14.20;59.40;;;;;;4995063;28;20402;-44
2022/11/12 13:15:19;;;;;;;9.60;5.80;;;14.30;59.20;;;;;;5010896;28;20056;-42
2022/11/12 13:17:51;;;;;;;9.13;5.53;;;14.40;59.20;;;;;;5007010;28;20409;-42
2022/11/12 13:20:37;;;;;;;9.25;5.45;;;14.40;59.10;;;;;;5006453;28;20057;-45
2022/11/12 13:23:10;;;;;;;8.88;4.95;;;14.40;59.00;;;;;;5002465;28;20049;-42
2022/11/12 13:25:38;;;;;;;8.53;4.60;;;14.40;59.00;;;;;;4994917;28;20056;-42
2022/11/12 13:28:07;;;;;;;7.40;4.75;;;14.50;59.00;;;;;;4996248;28;20057;-41
2022/11/12 13:31:00;;;;;;;8.48;5.10;;;14.50;58.90;;;;;;4997551;28;20062;-44
2022/11/12 13:33:32;;;;;;;6.40;4.22;;;14.50;58.70;;;;;;4993486;28;20065;-40
2022/11/12 13:36:36;;;;;;;6.35;4.50;;;14.60;58.80;;;;;;4990322;28;20069;-41
2022/11/12 13:39:14;;;;;;;5.85;4.07;;;14.60;58.70;;;;;;5001206;28;20057;-41
2022/11/12 13:44:27;;;;;;;6.28;4.53;;;14.70;58.50;;;;;;5012686;28;20073;-42
2022/11/12 13:46:55;;;;;;;11.13;4.15;;;14.70;58.50;;;;;;4994462;28;20115;-41
2022/11/12 13:49:24;;;;;;;10.93;4.53;;;14.70;58.40;;;;;;5006591;28;20422;-41
2022/11/12 13:51:52;;;;;;;6.93;4.68;;;14.80;58.40;;;;;;5004357;28;20046;-43
2022/11/12 13:54:31;;;;;;;6.75;4.38;;;14.80;58.30;;;;;;5001173;28;20061;-41
2022/11/12 13:57:31;;;;;;;7.15;4.70;;;14.80;58.10;;;;;;5004347;28;20054;-41
2022/11/12 14:00:20;;;;;;;6.93;3.90;;;14.90;58.10;;;;;;4999962;28;20413;-41
2022/11/12 14:02:51;;;;;;;8.65;4.43;;;14.90;57.90;;;;;;4985273;28;20054;-43
2022/11/12 14:05:23;;;;;;;6.90;4.63;;;14.90;57.70;;;;;;5000082;28;20438;-44
2022/11/12 14:08:01;;;;;;;5.47;3.95;;;14.90;57.60;;;;;;4998966;28;20061;-40
2022/11/12 14:10:38;;;;;;;5.72;4.10;;;15.00;57.50;;;;;;4997267;28;20061;-41
2022/11/12 14:13:24;;;;;;;6.32;3.97;;;15.00;57.50;;;;;;5005802;28;20058;-40